sensor_id;sensor_type;location;lat;lon;timestamp;P1;durP1;ratioP1;P2;durP2;ratioP2
38513;SDS011;24282;48.400;10.808;2023-04-25T00:01:11;4.07;;;2.37;;
38513;SDS011;24282;48.400;10.808;2023-04-25T00:03:38;2.93;;;2.30;;
38513;SDS011;24282;48.400;10.808;2023-04-25T00:06:04;6.30;;;2.30;;
38513;SDS011;24282;48.400;10.808;2023-04-25T00:08:30;4.30;;;2.30;;
38513;SDS011;24282;48.400;10.808;2023-04-25T00:10:56;4.33;;;2.33;;
38513;SDS011;24282;48.400;10.808;2023-04-25T00:13:22;3.60;;;2.50;;
38513;SDS011;24282;48.400;10.808;2023-04-25T00:15:48;4.37;;;2.07;;
38513;SDS011;24282;48.400;10.808;2023-04-25T00:18:14;4.17;;;2.10;;
38513;SDS011;24282;48.400;10.808;2023-04-25T00:20:40;3.03;;;2.20;;
38513;SDS011;24282;48.400;10.808;2023-04-25T00:23:09;2.00;;;1.60;;
38513;SDS011;24282;48.400;10.808;2023-04-25T00:25:35;3.37;;;1.73;;
38513;SDS011;24282;48.400;10.808;2023-04-25T00:28:01;2.67;;;1.87;;
38513;SDS011;24282;48.400;10.808;2023-04-25T00:30:27;5.97;;;2.77;;
38513;SDS011;24282;48.400;10.808;2023-04-25T00:32:52;3.20;;;1.93;;
38513;SDS011;24282;48.400;10.808;2023-04-25T00:35:18;5.23;;;2.00;;
38513;SDS011;24282;48.400;10.808;2023-04-25T00:37:44;2.67;;;1.80;;
38513;SDS011;24282;48.400;10.808;2023-04-25T00:40:10;2.63;;;1.60;;
38513;SDS011;24282;48.400;10.808;2023-04-25T00:42:37;5.13;;;1.90;;
38513;SDS011;24282;48.400;10.808;2023-04-25T00:45:04;2.83;;;1.83;;
38513;SDS011;24282;48.400;10.808;2023-04-25T00:47:32;3.43;;;1.67;;
38513;SDS011;24282;48.400;10.808;2023-04-25T00:49:58;2.10;;;1.50;;
38513;SDS011;24282;48.400;10.808;2023-04-25T00:52:24;2.80;;;1.80;;
38513;SDS011;24282;48.400;10.808;2023-04-25T00:54:50;3.33;;;1.87;;
38513;SDS011;24282;48.400;10.808;2023-04-25T00:57:16;2.57;;;1.70;;
38513;SDS011;24282;48.400;10.808;2023-04-25T00:59:42;3.57;;;1.80;;
38513;SDS011;24282;48.400;10.808;2023-04-25T01:02:11;2.50;;;1.70;;
38513;SDS011;24282;48.400;10.808;2023-04-25T01:04:37;3.67;;;1.87;;
38513;SDS011;24282;48.400;10.808;2023-04-25T01:07:03;3.40;;;2.10;;
38513;SDS011;24282;48.400;10.808;2023-04-25T01:09:30;4.37;;;2.27;;
38513;SDS011;24282;48.400;10.808;2023-04-25T01:11:57;3.17;;;2.30;;
38513;SDS011;24282;48.400;10.808;2023-04-25T01:14:23;4.20;;;1.97;;
38513;SDS011;24282;48.400;10.808;2023-04-25T01:16:48;2.83;;;1.90;;
38513;SDS011;24282;48.400;10.808;2023-04-25T01:19:16;4.03;;;2.33;;
38513;SDS011;24282;48.400;10.808;2023-04-25T01:21:45;3.30;;;2.20;;
38513;SDS011;24282;48.400;10.808;2023-04-25T01:24:11;4.40;;;2.37;;
38513;SDS011;24282;48.400;10.808;2023-04-25T01:26:38;3.60;;;1.90;;
38513;SDS011;24282;48.400;10.808;2023-04-25T01:29:09;3.60;;;2.30;;
38513;SDS011;24282;48.400;10.808;2023-04-25T01:31:36;4.17;;;2.87;;
38513;SDS011;24282;48.400;10.808;2023-04-25T01:34:04;3.93;;;2.33;;
38513;SDS011;24282;48.400;10.808;2023-04-25T01:36:30;5.47;;;2.93;;
38513;SDS011;24282;48.400;10.808;2023-04-25T01:38:56;3.47;;;2.37;;
38513;SDS011;24282;48.400;10.808;2023-04-25T01:41:22;3.67;;;2.20;;
38513;SDS011;24282;48.400;10.808;2023-04-25T01:43:49;3.97;;;2.40;;
38513;SDS011;24282;48.400;10.808;2023-04-25T01:46:15;2.80;;;2.13;;
38513;SDS011;24282;48.400;10.808;2023-04-25T01:48:42;4.37;;;2.10;;
38513;SDS011;24282;48.400;10.808;2023-04-25T01:51:08;2.70;;;1.90;;
38513;SDS011;24282;48.400;10.808;2023-04-25T01:53:35;2.40;;;2.00;;
38513;SDS011;24282;48.400;10.808;2023-04-25T01:56:02;3.80;;;1.90;;
38513;SDS011;24282;48.400;10.808;2023-04-25T01:58:32;2.77;;;1.70;;
38513;SDS011;24282;48.400;10.808;2023-04-25T02:00:58;2.93;;;2.00;;
38513;SDS011;24282;48.400;10.808;2023-04-25T02:03:29;4.40;;;2.10;;
38513;SDS011;24282;48.400;10.808;2023-04-25T02:05:57;2.60;;;2.00;;
38513;SDS011;24282;48.400;10.808;2023-04-25T02:08:23;4.33;;;2.30;;
38513;SDS011;24282;48.400;10.808;2023-04-25T02:10:53;2.07;;;1.87;;
38513;SDS011;24282;48.400;10.808;2023-04-25T02:13:19;4.33;;;2.43;;
38513;SDS011;24282;48.400;10.808;2023-04-25T02:15:57;2.73;;;2.10;;
38513;SDS011;24282;48.400;10.808;2023-04-25T02:18:23;3.80;;;1.90;;
38513;SDS011;24282;48.400;10.808;2023-04-25T02:20:50;3.50;;;2.43;;
38513;SDS011;24282;48.400;10.808;2023-04-25T02:23:15;3.10;;;1.80;;
38513;SDS011;24282;48.400;10.808;2023-04-25T02:25:41;2.33;;;1.50;;
38513;SDS011;24282;48.400;10.808;2023-04-25T02:28:07;2.30;;;1.70;;
38513;SDS011;24282;48.400;10.808;2023-04-25T02:30:34;3.90;;;2.30;;
38513;SDS011;24282;48.400;10.808;2023-04-25T02:33:03;3.00;;;2.03;;
38513;SDS011;24282;48.400;10.808;2023-04-25T02:35:29;2.80;;;2.23;;
38513;SDS011;24282;48.400;10.808;2023-04-25T02:37:55;3.43;;;2.40;;
38513;SDS011;24282;48.400;10.808;2023-04-25T02:40:21;3.57;;;2.10;;
38513;SDS011;24282;48.400;10.808;2023-04-25T02:42:47;2.97;;;2.03;;
38513;SDS011;24282;48.400;10.808;2023-04-25T02:45:13;4.43;;;2.10;;
38513;SDS011;24282;48.400;10.808;2023-04-25T02:47:40;3.60;;;2.30;;
38513;SDS011;24282;48.400;10.808;2023-04-25T02:50:05;3.83;;;2.33;;
38513;SDS011;24282;48.400;10.808;2023-04-25T02:52:32;4.00;;;2.90;;
38513;SDS011;24282;48.400;10.808;2023-04-25T02:55:07;3.80;;;2.60;;
38513;SDS011;24282;48.400;10.808;2023-04-25T02:57:34;4.97;;;2.30;;
38513;SDS011;24282;48.400;10.808;2023-04-25T03:00:00;3.83;;;2.60;;
38513;SDS011;24282;48.400;10.808;2023-04-25T03:02:26;5.60;;;2.50;;
38513;SDS011;24282;48.400;10.808;2023-04-25T03:04:52;3.17;;;2.30;;
38513;SDS011;24282;48.400;10.808;2023-04-25T03:07:17;3.93;;;2.40;;
38513;SDS011;24282;48.400;10.808;2023-04-25T03:09:43;3.60;;;2.60;;
38513;SDS011;24282;48.400;10.808;2023-04-25T03:12:09;3.10;;;2.00;;
38513;SDS011;24282;48.400;10.808;2023-04-25T03:14:35;5.33;;;2.63;;
38513;SDS011;24282;48.400;10.808;2023-04-25T03:17:01;5.47;;;2.77;;
38513;SDS011;24282;48.400;10.808;2023-04-25T03:19:27;4.73;;;2.20;;
38513;SDS011;24282;48.400;10.808;2023-04-25T03:21:52;5.63;;;2.80;;
38513;SDS011;24282;48.400;10.808;2023-04-25T03:24:18;4.00;;;2.77;;
38513;SDS011;24282;48.400;10.808;2023-04-25T03:26:44;3.57;;;2.60;;
38513;SDS011;24282;48.400;10.808;2023-04-25T03:29:10;4.00;;;2.53;;
38513;SDS011;24282;48.400;10.808;2023-04-25T03:31:38;5.33;;;2.57;;
38513;SDS011;24282;48.400;10.808;2023-04-25T03:34:03;5.70;;;2.87;;
38513;SDS011;24282;48.400;10.808;2023-04-25T03:36:29;4.40;;;2.63;;
38513;SDS011;24282;48.400;10.808;2023-04-25T03:38:55;4.27;;;2.90;;
38513;SDS011;24282;48.400;10.808;2023-04-25T03:41:21;4.57;;;2.87;;
38513;SDS011;24282;48.400;10.808;2023-04-25T03:43:51;6.33;;;3.27;;
38513;SDS011;24282;48.400;10.808;2023-04-25T03:46:17;3.47;;;2.10;;
38513;SDS011;24282;48.400;10.808;2023-04-25T03:48:45;5.00;;;2.33;;
38513;SDS011;24282;48.400;10.808;2023-04-25T03:51:16;4.30;;;2.50;;
38513;SDS011;24282;48.400;10.808;2023-04-25T03:53:44;4.07;;;2.73;;
38513;SDS011;24282;48.400;10.808;2023-04-25T03:56:18;4.03;;;2.37;;
38513;SDS011;24282;48.400;10.808;2023-04-25T03:58:46;4.23;;;2.80;;
38513;SDS011;24282;48.400;10.808;2023-04-25T04:01:13;3.67;;;2.40;;
38513;SDS011;24282;48.400;10.808;2023-04-25T04:03:39;5.07;;;2.40;;
38513;SDS011;24282;48.400;10.808;2023-04-25T04:06:06;3.23;;;2.07;;
38513;SDS011;24282;48.400;10.808;2023-04-25T04:08:39;4.47;;;2.40;;
38513;SDS011;24282;48.400;10.808;2023-04-25T04:11:05;3.33;;;2.20;;
38513;SDS011;24282;48.400;10.808;2023-04-25T04:13:31;3.50;;;2.47;;
38513;SDS011;24282;48.400;10.808;2023-04-25T04:15:57;3.07;;;2.17;;
38513;SDS011;24282;48.400;10.808;2023-04-25T04:18:23;6.17;;;2.90;;
38513;SDS011;24282;48.400;10.808;2023-04-25T04:20:49;7.63;;;4.63;;
38513;SDS011;24282;48.400;10.808;2023-04-25T04:23:16;8.40;;;4.30;;
38513;SDS011;24282;48.400;10.808;2023-04-25T04:25:43;5.63;;;3.10;;
38513;SDS011;24282;48.400;10.808;2023-04-25T04:28:28;5.10;;;2.67;;
38513;SDS011;24282;48.400;10.808;2023-04-25T04:30:58;3.30;;;2.33;;
38513;SDS011;24282;48.400;10.808;2023-04-25T04:33:26;3.20;;;2.10;;
38513;SDS011;24282;48.400;10.808;2023-04-25T04:35:57;3.97;;;2.30;;
38513;SDS011;24282;48.400;10.808;2023-04-25T04:38:23;3.37;;;2.10;;
38513;SDS011;24282;48.400;10.808;2023-04-25T04:40:52;4.33;;;2.00;;
38513;SDS011;24282;48.400;10.808;2023-04-25T04:43:28;3.30;;;1.80;;
38513;SDS011;24282;48.400;10.808;2023-04-25T04:46:02;4.03;;;2.30;;
38513;SDS011;24282;48.400;10.808;2023-04-25T04:48:40;4.30;;;2.10;;
38513;SDS011;24282;48.400;10.808;2023-04-25T04:51:28;6.00;;;2.10;;
38513;SDS011;24282;48.400;10.808;2023-04-25T04:54:21;5.10;;;2.53;;
38513;SDS011;24282;48.400;10.808;2023-04-25T04:56:58;4.60;;;2.40;;
38513;SDS011;24282;48.400;10.808;2023-04-25T04:59:43;4.47;;;2.33;;
38513;SDS011;24282;48.400;10.808;2023-04-25T05:02:27;3.87;;;2.03;;
38513;SDS011;24282;48.400;10.808;2023-04-25T05:05:21;3.33;;;1.73;;
38513;SDS011;24282;48.400;10.808;2023-04-25T05:08:03;4.63;;;1.77;;
38513;SDS011;24282;48.400;10.808;2023-04-25T05:10:43;3.83;;;1.73;;
38513;SDS011;24282;48.400;10.808;2023-04-25T05:13:20;5.33;;;1.83;;
38513;SDS011;24282;48.400;10.808;2023-04-25T05:16:01;2.77;;;1.60;;
38513;SDS011;24282;48.400;10.808;2023-04-25T05:18:50;3.60;;;1.93;;
38513;SDS011;24282;48.400;10.808;2023-04-25T05:21:39;4.97;;;1.87;;
38513;SDS011;24282;48.400;10.808;2023-04-25T05:24:12;4.80;;;1.90;;
38513;SDS011;24282;48.400;10.808;2023-04-25T05:27:07;3.87;;;1.70;;
38513;SDS011;24282;48.400;10.808;2023-04-25T05:29:53;3.67;;;1.60;;
38513;SDS011;24282;48.400;10.808;2023-04-25T05:32:30;4.20;;;2.00;;
38513;SDS011;24282;48.400;10.808;2023-04-25T05:34:56;2.67;;;1.67;;
38513;SDS011;24282;48.400;10.808;2023-04-25T05:37:25;4.73;;;2.80;;
38513;SDS011;24282;48.400;10.808;2023-04-25T05:39:54;5.80;;;3.27;;
38513;SDS011;24282;48.400;10.808;2023-04-25T05:42:49;5.43;;;3.03;;
38513;SDS011;24282;48.400;10.808;2023-04-25T05:45:21;4.30;;;2.50;;
38513;SDS011;24282;48.400;10.808;2023-04-25T05:48:04;4.37;;;2.13;;
38513;SDS011;24282;48.400;10.808;2023-04-25T05:51:02;3.97;;;2.30;;
38513;SDS011;24282;48.400;10.808;2023-04-25T05:53:37;3.37;;;1.90;;
38513;SDS011;24282;48.400;10.808;2023-04-25T05:56:03;5.00;;;2.10;;
38513;SDS011;24282;48.400;10.808;2023-04-25T05:58:29;5.27;;;1.93;;
38513;SDS011;24282;48.400;10.808;2023-04-25T06:00:56;4.57;;;1.80;;
38513;SDS011;24282;48.400;10.808;2023-04-25T06:03:22;4.47;;;2.20;;
38513;SDS011;24282;48.400;10.808;2023-04-25T06:05:49;4.60;;;1.67;;
38513;SDS011;24282;48.400;10.808;2023-04-25T06:08:15;4.90;;;2.10;;
38513;SDS011;24282;48.400;10.808;2023-04-25T06:10:41;5.63;;;2.20;;
38513;SDS011;24282;48.400;10.808;2023-04-25T06:13:07;3.37;;;2.00;;
38513;SDS011;24282;48.400;10.808;2023-04-25T06:15:35;4.03;;;2.00;;
38513;SDS011;24282;48.400;10.808;2023-04-25T06:18:00;2.80;;;1.80;;
38513;SDS011;24282;48.400;10.808;2023-04-25T06:20:26;3.77;;;1.80;;
38513;SDS011;24282;48.400;10.808;2023-04-25T06:22:55;3.33;;;1.47;;
38513;SDS011;24282;48.400;10.808;2023-04-25T06:25:30;3.37;;;1.67;;
38513;SDS011;24282;48.400;10.808;2023-04-25T06:27:56;3.67;;;1.63;;
38513;SDS011;24282;48.400;10.808;2023-04-25T06:30:22;4.83;;;2.60;;
38513;SDS011;24282;48.400;10.808;2023-04-25T06:32:54;4.40;;;2.30;;
38513;SDS011;24282;48.400;10.808;2023-04-25T06:35:20;3.97;;;1.80;;
38513;SDS011;24282;48.400;10.808;2023-04-25T06:37:46;3.27;;;1.50;;
38513;SDS011;24282;48.400;10.808;2023-04-25T06:40:12;3.07;;;1.77;;
38513;SDS011;24282;48.400;10.808;2023-04-25T06:42:38;4.33;;;1.90;;
38513;SDS011;24282;48.400;10.808;2023-04-25T06:45:23;3.73;;;1.80;;
38513;SDS011;24282;48.400;10.808;2023-04-25T06:47:52;3.07;;;1.80;;
38513;SDS011;24282;48.400;10.808;2023-04-25T06:50:17;3.30;;;2.03;;
38513;SDS011;24282;48.400;10.808;2023-04-25T06:52:44;3.57;;;1.80;;
38513;SDS011;24282;48.400;10.808;2023-04-25T06:55:09;3.23;;;1.47;;
38513;SDS011;24282;48.400;10.808;2023-04-25T06:57:51;3.47;;;1.90;;
38513;SDS011;24282;48.400;10.808;2023-04-25T07:00:45;3.63;;;1.50;;
38513;SDS011;24282;48.400;10.808;2023-04-25T07:03:11;3.00;;;1.90;;
38513;SDS011;24282;48.400;10.808;2023-04-25T07:05:37;2.77;;;1.63;;
38513;SDS011;24282;48.400;10.808;2023-04-25T07:08:03;3.20;;;1.60;;
38513;SDS011;24282;48.400;10.808;2023-04-25T07:10:28;4.97;;;1.67;;
38513;SDS011;24282;48.400;10.808;2023-04-25T07:12:55;3.27;;;1.60;;
38513;SDS011;24282;48.400;10.808;2023-04-25T07:15:21;3.33;;;1.37;;
38513;SDS011;24282;48.400;10.808;2023-04-25T07:17:48;4.43;;;1.60;;
38513;SDS011;24282;48.400;10.808;2023-04-25T07:20:14;3.93;;;1.90;;
38513;SDS011;24282;48.400;10.808;2023-04-25T07:22:41;3.97;;;1.63;;
38513;SDS011;24282;48.400;10.808;2023-04-25T07:25:08;3.37;;;1.60;;
38513;SDS011;24282;48.400;10.808;2023-04-25T07:27:34;3.00;;;1.73;;
38513;SDS011;24282;48.400;10.808;2023-04-25T07:30:13;3.53;;;2.27;;
38513;SDS011;24282;48.400;10.808;2023-04-25T07:32:39;4.43;;;1.70;;
38513;SDS011;24282;48.400;10.808;2023-04-25T07:35:05;2.77;;;1.30;;
38513;SDS011;24282;48.400;10.808;2023-04-25T07:37:33;4.10;;;1.70;;
38513;SDS011;24282;48.400;10.808;2023-04-25T07:40:05;3.67;;;2.40;;
38513;SDS011;24282;48.400;10.808;2023-04-25T07:42:31;4.00;;;2.00;;
38513;SDS011;24282;48.400;10.808;2023-04-25T07:44:57;3.10;;;2.00;;
38513;SDS011;24282;48.400;10.808;2023-04-25T07:47:23;3.60;;;1.70;;
38513;SDS011;24282;48.400;10.808;2023-04-25T07:49:51;2.60;;;1.57;;
38513;SDS011;24282;48.400;10.808;2023-04-25T07:52:17;4.73;;;1.93;;
38513;SDS011;24282;48.400;10.808;2023-04-25T07:54:48;3.40;;;2.13;;
38513;SDS011;24282;48.400;10.808;2023-04-25T07:57:19;4.70;;;1.67;;
38513;SDS011;24282;48.400;10.808;2023-04-25T07:59:46;2.43;;;1.60;;
38513;SDS011;24282;48.400;10.808;2023-04-25T08:02:12;3.70;;;1.80;;
38513;SDS011;24282;48.400;10.808;2023-04-25T08:04:38;3.50;;;1.77;;
38513;SDS011;24282;48.400;10.808;2023-04-25T08:07:07;2.77;;;1.40;;
38513;SDS011;24282;48.400;10.808;2023-04-25T08:09:44;3.17;;;1.57;;
38513;SDS011;24282;48.400;10.808;2023-04-25T08:12:18;5.60;;;1.60;;
38513;SDS011;24282;48.400;10.808;2023-04-25T08:14:44;2.40;;;1.50;;
38513;SDS011;24282;48.400;10.808;2023-04-25T08:17:10;3.03;;;1.47;;
38513;SDS011;24282;48.400;10.808;2023-04-25T08:19:39;3.60;;;1.70;;
38513;SDS011;24282;48.400;10.808;2023-04-25T08:22:07;3.50;;;1.87;;
38513;SDS011;24282;48.400;10.808;2023-04-25T08:24:44;2.60;;;1.47;;
38513;SDS011;24282;48.400;10.808;2023-04-25T08:27:10;4.57;;;1.50;;
38513;SDS011;24282;48.400;10.808;2023-04-25T08:29:37;4.67;;;1.33;;
38513;SDS011;24282;48.400;10.808;2023-04-25T08:32:03;3.20;;;1.90;;
38513;SDS011;24282;48.400;10.808;2023-04-25T08:34:30;5.50;;;1.50;;
38513;SDS011;24282;48.400;10.808;2023-04-25T08:36:58;4.03;;;1.40;;
38513;SDS011;24282;48.400;10.808;2023-04-25T08:39:50;2.33;;;1.70;;
38513;SDS011;24282;48.400;10.808;2023-04-25T08:42:37;3.20;;;1.63;;
38513;SDS011;24282;48.400;10.808;2023-04-25T08:45:05;3.33;;;1.50;;
38513;SDS011;24282;48.400;10.808;2023-04-25T08:47:35;2.73;;;1.80;;
38513;SDS011;24282;48.400;10.808;2023-04-25T08:50:05;3.10;;;1.60;;
38513;SDS011;24282;48.400;10.808;2023-04-25T08:52:35;2.67;;;1.27;;
38513;SDS011;24282;48.400;10.808;2023-04-25T08:55:03;1.73;;;1.20;;
38513;SDS011;24282;48.400;10.808;2023-04-25T08:57:30;3.03;;;1.40;;
38513;SDS011;24282;48.400;10.808;2023-04-25T08:59:57;2.27;;;1.20;;
38513;SDS011;24282;48.400;10.808;2023-04-25T09:02:24;2.60;;;1.13;;
38513;SDS011;24282;48.400;10.808;2023-04-25T09:04:51;4.30;;;1.50;;
38513;SDS011;24282;48.400;10.808;2023-04-25T09:07:19;2.47;;;1.40;;
38513;SDS011;24282;48.400;10.808;2023-04-25T09:09:46;2.23;;;1.10;;
38513;SDS011;24282;48.400;10.808;2023-04-25T09:12:18;3.40;;;1.47;;
38513;SDS011;24282;48.400;10.808;2023-04-25T09:15:00;2.33;;;1.37;;
38513;SDS011;24282;48.400;10.808;2023-04-25T09:17:54;2.03;;;1.15;;
38513;SDS011;24282;48.400;10.808;2023-04-25T09:20:21;2.50;;;1.23;;
38513;SDS011;24282;48.400;10.808;2023-04-25T09:22:47;2.23;;;1.23;;
38513;SDS011;24282;48.400;10.808;2023-04-25T09:25:13;2.00;;;1.23;;
38513;SDS011;24282;48.400;10.808;2023-04-25T09:27:51;4.33;;;2.00;;
38513;SDS011;24282;48.400;10.808;2023-04-25T09:30:29;1.87;;;1.17;;
38513;SDS011;24282;48.400;10.808;2023-04-25T09:33:09;3.25;;;1.50;;
38513;SDS011;24282;48.400;10.808;2023-04-25T09:35:38;4.37;;;1.53;;
38513;SDS011;24282;48.400;10.808;2023-04-25T09:38:12;3.77;;;1.50;;
38513;SDS011;24282;48.400;10.808;2023-04-25T09:40:51;3.43;;;1.80;;
38513;SDS011;24282;48.400;10.808;2023-04-25T09:43:40;3.10;;;1.43;;
38513;SDS011;24282;48.400;10.808;2023-04-25T09:46:11;3.20;;;1.77;;
38513;SDS011;24282;48.400;10.808;2023-04-25T09:48:41;1.93;;;1.50;;
38513;SDS011;24282;48.400;10.808;2023-04-25T09:51:15;3.17;;;2.00;;
38513;SDS011;24282;48.400;10.808;2023-04-25T09:53:45;3.13;;;1.70;;
38513;SDS011;24282;48.400;10.808;2023-04-25T09:59:05;1.97;;;1.40;;
38513;SDS011;24282;48.400;10.808;2023-04-25T10:01:34;2.73;;;1.40;;
38513;SDS011;24282;48.400;10.808;2023-04-25T10:04:08;1.50;;;1.10;;
38513;SDS011;24282;48.400;10.808;2023-04-25T10:06:48;1.43;;;1.13;;
38513;SDS011;24282;48.400;10.808;2023-04-25T10:09:16;1.50;;;1.00;;
38513;SDS011;24282;48.400;10.808;2023-04-25T10:11:46;2.40;;;1.23;;
38513;SDS011;24282;48.400;10.808;2023-04-25T10:14:15;2.43;;;0.90;;
38513;SDS011;24282;48.400;10.808;2023-04-25T10:16:41;1.30;;;1.10;;
38513;SDS011;24282;48.400;10.808;2023-04-25T10:19:09;2.13;;;1.27;;
38513;SDS011;24282;48.400;10.808;2023-04-25T10:21:36;1.20;;;0.87;;
38513;SDS011;24282;48.400;10.808;2023-04-25T10:24:10;1.53;;;1.03;;
38513;SDS011;24282;48.400;10.808;2023-04-25T10:26:36;1.67;;;1.10;;
38513;SDS011;24282;48.400;10.808;2023-04-25T10:29:03;2.33;;;1.40;;
38513;SDS011;24282;48.400;10.808;2023-04-25T10:31:29;1.93;;;1.07;;
38513;SDS011;24282;48.400;10.808;2023-04-25T10:33:56;1.73;;;1.00;;
38513;SDS011;24282;48.400;10.808;2023-04-25T10:36:22;1.27;;;0.90;;
38513;SDS011;24282;48.400;10.808;2023-04-25T10:38:49;1.53;;;1.00;;
38513;SDS011;24282;48.400;10.808;2023-04-25T10:41:17;2.73;;;1.40;;
38513;SDS011;24282;48.400;10.808;2023-04-25T10:43:47;1.50;;;0.80;;
38513;SDS011;24282;48.400;10.808;2023-04-25T10:48:56;1.50;;;1.00;;
38513;SDS011;24282;48.400;10.808;2023-04-25T10:51:27;1.90;;;1.17;;
38513;SDS011;24282;48.400;10.808;2023-04-25T10:59:19;1.67;;;1.20;;
38513;SDS011;24282;48.400;10.808;2023-04-25T11:01:47;1.90;;;1.20;;
38513;SDS011;24282;48.400;10.808;2023-04-25T11:04:20;2.93;;;1.43;;
38513;SDS011;24282;48.400;10.808;2023-04-25T11:09:38;2.43;;;1.40;;
38513;SDS011;24282;48.400;10.808;2023-04-25T11:12:06;2.50;;;1.73;;
38513;SDS011;24282;48.400;10.808;2023-04-25T11:14:33;2.63;;;1.43;;
38513;SDS011;24282;48.400;10.808;2023-04-25T11:16:59;4.97;;;1.43;;
38513;SDS011;24282;48.400;10.808;2023-04-25T11:19:26;4.63;;;1.57;;
38513;SDS011;24282;48.400;10.808;2023-04-25T11:21:56;2.93;;;1.67;;
38513;SDS011;24282;48.400;10.808;2023-04-25T11:24:29;1.63;;;1.30;;
38513;SDS011;24282;48.400;10.808;2023-04-25T11:26:57;4.43;;;2.10;;
38513;SDS011;24282;48.400;10.808;2023-04-25T11:29:27;2.67;;;1.60;;
38513;SDS011;24282;48.400;10.808;2023-04-25T11:31:54;2.10;;;1.70;;
38513;SDS011;24282;48.400;10.808;2023-04-25T11:34:27;3.97;;;1.43;;
38513;SDS011;24282;48.400;10.808;2023-04-25T11:36:55;2.17;;;1.10;;
38513;SDS011;24282;48.400;10.808;2023-04-25T11:39:21;1.53;;;1.00;;
38513;SDS011;24282;48.400;10.808;2023-04-25T11:41:49;3.60;;;1.30;;
38513;SDS011;24282;48.400;10.808;2023-04-25T11:44:16;1.93;;;1.13;;
38513;SDS011;24282;48.400;10.808;2023-04-25T11:46:43;6.13;;;3.10;;
38513;SDS011;24282;48.400;10.808;2023-04-25T11:49:09;2.23;;;1.30;;
38513;SDS011;24282;48.400;10.808;2023-04-25T11:51:39;1.10;;;1.00;;
38513;SDS011;24282;48.400;10.808;2023-04-25T11:54:05;1.97;;;0.97;;
38513;SDS011;24282;48.400;10.808;2023-04-25T11:56:31;1.63;;;1.13;;
38513;SDS011;24282;48.400;10.808;2023-04-25T11:58:58;2.20;;;1.20;;
38513;SDS011;24282;48.400;10.808;2023-04-25T12:01:31;2.05;;;1.27;;
38513;SDS011;24282;48.400;10.808;2023-04-25T12:03:58;3.60;;;1.67;;
38513;SDS011;24282;48.400;10.808;2023-04-25T12:06:38;3.87;;;1.67;;
38513;SDS011;24282;48.400;10.808;2023-04-25T12:09:08;2.10;;;1.40;;
38513;SDS011;24282;48.400;10.808;2023-04-25T12:11:45;1.73;;;1.40;;
38513;SDS011;24282;48.400;10.808;2023-04-25T12:14:23;4.07;;;1.57;;
38513;SDS011;24282;48.400;10.808;2023-04-25T12:16:57;1.90;;;1.20;;
38513;SDS011;24282;48.400;10.808;2023-04-25T12:19:25;2.23;;;1.47;;
38513;SDS011;24282;48.400;10.808;2023-04-25T12:21:51;2.23;;;1.27;;
38513;SDS011;24282;48.400;10.808;2023-04-25T12:26:48;1.90;;;1.20;;
38513;SDS011;24282;48.400;10.808;2023-04-25T12:29:16;1.77;;;1.00;;
38513;SDS011;24282;48.400;10.808;2023-04-25T12:31:42;1.20;;;0.83;;
38513;SDS011;24282;48.400;10.808;2023-04-25T12:34:08;1.37;;;0.90;;
38513;SDS011;24282;48.400;10.808;2023-04-25T12:36:34;1.37;;;0.90;;
38513;SDS011;24282;48.400;10.808;2023-04-25T12:39:00;3.37;;;1.13;;
38513;SDS011;24282;48.400;10.808;2023-04-25T12:41:29;3.47;;;1.30;;
38513;SDS011;24282;48.400;10.808;2023-04-25T12:43:55;2.03;;;1.20;;
38513;SDS011;24282;48.400;10.808;2023-04-25T12:46:21;2.73;;;2.00;;
38513;SDS011;24282;48.400;10.808;2023-04-25T12:48:48;2.00;;;1.10;;
38513;SDS011;24282;48.400;10.808;2023-04-25T12:51:13;1.43;;;1.10;;
38513;SDS011;24282;48.400;10.808;2023-04-25T12:53:40;2.07;;;1.00;;
38513;SDS011;24282;48.400;10.808;2023-04-25T12:56:09;1.20;;;0.90;;
38513;SDS011;24282;48.400;10.808;2023-04-25T12:58:35;2.00;;;1.23;;
38513;SDS011;24282;48.400;10.808;2023-04-25T13:01:00;2.80;;;1.97;;
38513;SDS011;24282;48.400;10.808;2023-04-25T13:03:26;3.17;;;1.50;;
38513;SDS011;24282;48.400;10.808;2023-04-25T13:05:52;1.83;;;1.23;;
38513;SDS011;24282;48.400;10.808;2023-04-25T13:08:18;1.00;;;0.90;;
38513;SDS011;24282;48.400;10.808;2023-04-25T13:10:44;2.90;;;1.13;;
38513;SDS011;24282;48.400;10.808;2023-04-25T13:13:10;1.30;;;0.90;;
38513;SDS011;24282;48.400;10.808;2023-04-25T13:15:36;2.40;;;1.20;;
38513;SDS011;24282;48.400;10.808;2023-04-25T13:18:02;0.80;;;0.70;;
38513;SDS011;24282;48.400;10.808;2023-04-25T13:20:29;3.30;;;1.10;;
38513;SDS011;24282;48.400;10.808;2023-04-25T13:22:55;1.30;;;1.00;;
38513;SDS011;24282;48.400;10.808;2023-04-25T13:25:21;2.90;;;1.73;;
38513;SDS011;24282;48.400;10.808;2023-04-25T13:27:47;2.63;;;1.40;;
38513;SDS011;24282;48.400;10.808;2023-04-25T13:30:12;1.53;;;1.07;;
38513;SDS011;24282;48.400;10.808;2023-04-25T13:32:39;2.23;;;1.60;;
38513;SDS011;24282;48.400;10.808;2023-04-25T13:35:14;1.90;;;1.47;;
38513;SDS011;24282;48.400;10.808;2023-04-25T13:37:40;2.43;;;1.30;;
38513;SDS011;24282;48.400;10.808;2023-04-25T13:40:06;1.80;;;1.40;;
38513;SDS011;24282;48.400;10.808;2023-04-25T13:42:36;2.37;;;1.53;;
38513;SDS011;24282;48.400;10.808;2023-04-25T13:45:02;2.80;;;2.10;;
38513;SDS011;24282;48.400;10.808;2023-04-25T13:47:28;2.07;;;1.50;;
38513;SDS011;24282;48.400;10.808;2023-04-25T13:49:55;6.27;;;1.17;;
38513;SDS011;24282;48.400;10.808;2023-04-25T13:52:21;3.47;;;1.90;;
38513;SDS011;24282;48.400;10.808;2023-04-25T13:54:49;1.57;;;1.13;;
38513;SDS011;24282;48.400;10.808;2023-04-25T13:57:15;3.53;;;1.30;;
38513;SDS011;24282;48.400;10.808;2023-04-25T13:59:41;2.00;;;1.33;;
38513;SDS011;24282;48.400;10.808;2023-04-25T14:02:07;1.83;;;1.40;;
38513;SDS011;24282;48.400;10.808;2023-04-25T14:04:33;1.47;;;1.23;;
38513;SDS011;24282;48.400;10.808;2023-04-25T14:06:58;2.40;;;1.60;;
38513;SDS011;24282;48.400;10.808;2023-04-25T14:09:25;5.30;;;1.50;;
38513;SDS011;24282;48.400;10.808;2023-04-25T14:11:52;2.23;;;1.43;;
38513;SDS011;24282;48.400;10.808;2023-04-25T14:14:18;1.60;;;1.37;;
38513;SDS011;24282;48.400;10.808;2023-04-25T14:16:45;2.10;;;1.20;;
38513;SDS011;24282;48.400;10.808;2023-04-25T14:19:13;1.40;;;1.23;;
38513;SDS011;24282;48.400;10.808;2023-04-25T14:21:39;2.20;;;1.67;;
38513;SDS011;24282;48.400;10.808;2023-04-25T14:24:05;3.13;;;1.70;;
38513;SDS011;24282;48.400;10.808;2023-04-25T14:26:32;2.30;;;1.90;;
38513;SDS011;24282;48.400;10.808;2023-04-25T14:28:59;2.03;;;1.63;;
38513;SDS011;24282;48.400;10.808;2023-04-25T14:31:25;3.03;;;2.33;;
38513;SDS011;24282;48.400;10.808;2023-04-25T14:33:51;4.13;;;2.17;;
38513;SDS011;24282;48.400;10.808;2023-04-25T14:36:16;3.57;;;1.70;;
38513;SDS011;24282;48.400;10.808;2023-04-25T14:38:42;3.50;;;2.43;;
38513;SDS011;24282;48.400;10.808;2023-04-25T14:41:09;4.13;;;2.23;;
38513;SDS011;24282;48.400;10.808;2023-04-25T14:43:35;2.80;;;1.93;;
38513;SDS011;24282;48.400;10.808;2023-04-25T14:46:02;2.97;;;2.00;;
38513;SDS011;24282;48.400;10.808;2023-04-25T14:48:28;3.43;;;2.20;;
38513;SDS011;24282;48.400;10.808;2023-04-25T14:50:54;3.83;;;2.43;;
38513;SDS011;24282;48.400;10.808;2023-04-25T14:53:21;3.20;;;2.03;;
38513;SDS011;24282;48.400;10.808;2023-04-25T14:55:47;3.37;;;2.20;;
38513;SDS011;24282;48.400;10.808;2023-04-25T14:58:14;2.80;;;2.00;;
38513;SDS011;24282;48.400;10.808;2023-04-25T15:00:40;3.10;;;2.50;;